Time,TemperatureF,DewpointF,PressureIn,WindDirection,WindDirectionDegrees,WindSpeedMPH,WindSpeedGustMPH,Humidity,HourlyPrecipIn,Conditions,Clouds,dailyrainin,SoftwareType,DateUTC
2013-03-03 00:00:00,8.2,3.1,29.92,NE,45,0.0,0.0,79,0.00,,,0.00,WUHU216HW,2013-03-03 06:00:00,
2013-03-03 00:05:00,8.3,3.1,29.92,NE,45,0.0,0.0,79,0.00,,,0.00,WUHU216HW,2013-03-03 06:05:00,
2013-03-03 00:10:00,7.9,2.5,29.92,NE,45,0.0,0.0,78,0.00,,,0.00,WUHU216HW,2013-03-03 06:10:00,
2013-03-03 00:15:00,7.5,2.1,29.91,NE,45,0.0,0.0,78,0.00,,,0.00,WUHU216HW,2013-03-03 06:15:00,
2013-03-03 00:20:00,7.4,2.3,29.91,NE,45,0.0,0.0,79,0.00,,,0.00,WUHU216HW,2013-03-03 06:20:00,
2013-03-03 00:25:00,7.5,2.2,29.91,NE,45,0.0,0.0,78,0.00,,,0.00,WUHU216HW,2013-03-03 06:25:00,
2013-03-03 00:30:00,7.8,2.9,29.90,NE,45,0.0,0.0,80,0.00,,,0.00,WUHU216HW,2013-03-03 06:30:00,
2013-03-03 00:35:00,8.2,3.6,29.90,NE,45,0.0,0.0,81,0.00,,,0.00,WUHU216HW,2013-03-03 06:35:00,
2013-03-03 00:40:00,8.4,3.8,29.90,East,90,0.0,0.0,81,0.00,,,0.00,WUHU216HW,2013-03-03 06:40:00,
2013-03-03 00:45:00,8.4,3.5,29.90,East,90,0.0,0.0,80,0.00,,,0.00,WUHU216HW,2013-03-03 06:45:00,
2013-03-03 00:50:00,8.2,3.4,29.90,East,90,0.0,0.0,80,0.00,,,0.00,WUHU216HW,2013-03-03 06:50:00,
2013-03-03 00:55:00,7.9,2.7,29.90,East,90,0.0,0.0,79,0.00,,,0.00,WUHU216HW,2013-03-03 06:55:00,
2013-03-03 01:00:00,7.7,2.8,29.90,East,90,0.0,0.0,80,0.00,,,0.00,WUHU216HW,2013-03-03 07:00:00,
2013-03-03 01:05:00,7.4,2.3,29.90,ENE,68,0.0,0.0,79,0.00,,,0.00,WUHU216HW,2013-03-03 07:05:00,
2013-03-03 01:10:00,7.2,2.1,29.90,ENE,68,0.0,0.0,79,0.00,,,0.00,WUHU216HW,2013-03-03 07:10:00,
2013-03-03 01:15:00,7.0,1.6,29.90,ENE,68,0.0,0.0,78,0.00,,,0.00,WUHU216HW,2013-03-03 07:15:00,
2013-03-03 01:20:00,7.4,2.3,29.90,North,0,0.0,0.0,79,0.00,,,0.00,WUHU216HW,2013-03-03 07:20:00,
2013-03-03 01:25:00,7.2,1.9,29.90,North,0,0.0,0.0,78,0.00,,,0.00,WUHU216HW,2013-03-03 07:25:00,
2013-03-03 01:30:00,7.0,1.9,29.90,North,0,0.0,0.0,79,0.00,,,0.00,WUHU216HW,2013-03-03 07:30:00,
2013-03-03 01:35:00,7.1,1.9,29.90,North,0,0.0,0.0,79,0.00,,,0.00,WUHU216HW,2013-03-03 07:35:00,
2013-03-03 01:40:00,6.8,1.4,29.90,North,0,0.0,0.0,78,0.00,,,0.00,WUHU216HW,2013-03-03 07:40:00,
2013-03-03 01:45:00,6.4,1.0,29.90,North,0,0.0,0.0,78,0.00,,,0.00,WUHU216HW,2013-03-03 07:45:00,
2013-03-03 01:50:00,5.9,0.5,29.90,North,0,0.0,0.0,78,0.00,,,0.00,WUHU216HW,2013-03-03 07:50:00,
2013-03-03 01:55:00,5.5,-0.1,29.90,North,0,0.0,0.0,77,0.00,,,0.00,WUHU216HW,2013-03-03 07:55:00,
2013-03-03 02:00:00,5.1,-0.2,29.90,North,0,0.0,0.0,78,0.00,,,0.00,WUHU216HW,2013-03-03 08:00:00,
2013-03-03 02:05:00,5.0,-0.3,29.89,North,0,0.0,0.0,78,0.00,,,0.00,WUHU216HW,2013-03-03 08:05:00,
2013-03-03 02:10:00,5.0,-0.1,29.89,North,0,0.0,0.0,79,0.00,,,0.00,WUHU216HW,2013-03-03 08:10:00,
2013-03-03 02:15:00,5.0,-0.1,29.89,North,0,0.0,0.0,79,0.00,,,0.00,WUHU216HW,2013-03-03 08:15:00,
2013-03-03 02:20:00,5.0,-0.3,29.89,North,0,0.0,0.0,78,0.00,,,0.00,WUHU216HW,2013-03-03 08:20:00,
2013-03-03 02:25:00,5.0,-0.1,29.89,North,0,0.0,0.0,79,0.00,,,0.00,WUHU216HW,2013-03-03 08:25:00,
2013-03-03 02:30:00,5.1,0.0,29.89,North,0,0.0,0.0,79,0.00,,,0.00,WUHU216HW,2013-03-03 08:30:00,
2013-03-03 02:35:00,5.5,0.4,29.89,North,0,0.0,0.0,79,0.00,,,0.00,WUHU216HW,2013-03-03 08:35:00,
2013-03-03 02:40:00,5.7,0.6,29.89,North,0,0.0,0.0,79,0.00,,,0.00,WUHU216HW,2013-03-03 08:40:00,
2013-03-03 02:45:00,6.0,0.9,29.88,NNE,23,0.0,0.0,79,0.00,,,0.00,WUHU216HW,2013-03-03 08:45:00,
2013-03-03 02:50:00,5.9,0.8,29.88,NE,45,0.0,0.0,79,0.00,,,0.00,WUHU216HW,2013-03-03 08:50:00,
2013-03-03 02:55:00,5.5,0.4,29.87,ESE,113,0.0,0.0,79,0.00,,,0.00,WUHU216HW,2013-03-03 08:55:00,
2013-03-03 03:00:00,5.9,1.3,29.87,West,270,0.0,0.2,81,0.00,,,0.00,WUHU216HW,2013-03-03 09:00:00,
2013-03-03 03:05:00,6.2,1.6,29.87,West,270,0.0,0.2,81,0.00,,,0.00,WUHU216HW,2013-03-03 09:05:00,
2013-03-03 03:10:00,6.4,1.8,29.87,NE,45,0.2,0.2,81,0.00,,,0.00,WUHU216HW,2013-03-03 09:10:00,
2013-03-03 03:15:00,6.4,1.8,29.87,ENE,68,0.0,0.2,81,0.00,,,0.00,WUHU216HW,2013-03-03 09:15:00,
2013-03-03 03:20:00,6.2,1.6,29.87,NE,45,0.2,0.2,81,0.00,,,0.00,WUHU216HW,2013-03-03 09:20:00,
2013-03-03 03:25:00,6.3,1.8,29.87,ESE,113,0.0,0.2,81,0.00,,,0.00,WUHU216HW,2013-03-03 09:25:00,
2013-03-03 03:30:00,5.9,1.4,29.86,ESE,113,0.0,0.0,81,0.00,,,0.00,WUHU216HW,2013-03-03 09:30:00,
2013-03-03 03:35:00,5.6,1.1,29.86,ESE,113,0.0,0.0,81,0.00,,,0.00,WUHU216HW,2013-03-03 09:35:00,
2013-03-03 03:40:00,5.2,0.7,29.87,ENE,68,0.0,0.0,81,0.00,,,0.00,WUHU216HW,2013-03-03 09:40:00,
2013-03-03 03:45:00,5.0,0.5,29.87,East,90,0.0,0.0,81,0.00,,,0.00,WUHU216HW,2013-03-03 09:45:00,
2013-03-03 03:50:00,4.9,0.1,29.87,ENE,68,0.0,0.0,80,0.00,,,0.00,WUHU216HW,2013-03-03 09:50:00,
2013-03-03 03:55:00,4.9,0.1,29.87,ENE,68,0.0,0.0,80,0.00,,,0.00,WUHU216HW,2013-03-03 09:55:00,
2013-03-03 04:00:00,4.7,-0.1,29.87,ENE,68,0.0,0.0,80,0.00,,,0.00,WUHU216HW,2013-03-03 10:00:00,
2013-03-03 04:05:00,4.4,-0.3,29.87,ENE,68,0.0,0.0,80,0.00,,,0.00,WUHU216HW,2013-03-03 10:05:00,
2013-03-03 04:10:00,4.0,-0.7,29.87,ENE,68,0.0,0.0,80,0.00,,,0.00,WUHU216HW,2013-03-03 10:10:00,
2013-03-03 04:15:00,4.0,-0.8,29.88,ENE,68,0.0,0.0,80,0.00,,,0.00,WUHU216HW,2013-03-03 10:15:00,
2013-03-03 04:20:00,4.2,-0.6,29.88,NE,45,0.2,0.2,80,0.00,,,0.00,WUHU216HW,2013-03-03 10:20:00,
2013-03-03 04:25:00,4.8,0.0,29.87,NNE,23,0.0,0.2,80,0.00,,,0.00,WUHU216HW,2013-03-03 10:25:00,
2013-03-03 04:30:00,4.8,0.0,29.87,North,0,0.0,0.0,80,0.00,,,0.00,WUHU216HW,2013-03-03 10:30:00,
2013-03-03 04:35:00,4.7,0.0,29.87,North,0,0.2,0.2,80,0.00,,,0.00,WUHU216HW,2013-03-03 10:35:00,
2013-03-03 04:40:00,4.7,0.2,29.87,North,0,0.0,0.2,81,0.00,,,0.00,WUHU216HW,2013-03-03 10:40:00,
2013-03-03 04:45:00,4.7,0.2,29.88,NNW,338,0.0,0.0,81,0.00,,,0.00,WUHU216HW,2013-03-03 10:45:00,
2013-03-03 04:50:00,4.8,0.3,29.87,NNE,23,0.4,0.4,81,0.00,,,0.00,WUHU216HW,2013-03-03 10:50:00,
2013-03-03 04:55:00,5.0,0.4,29.87,NNE,23,0.0,0.4,81,0.00,,,0.00,WUHU216HW,2013-03-03 10:55:00,
2013-03-03 05:00:00,4.4,-0.1,29.87,NNE,23,0.0,0.0,81,0.00,,,0.00,WUHU216HW,2013-03-03 11:00:00,
2013-03-03 05:05:00,4.0,-0.8,29.87,NNE,23,0.0,0.0,80,0.00,,,0.00,WUHU216HW,2013-03-03 11:05:00,
2013-03-03 05:10:00,3.8,-0.7,29.87,ESE,113,0.0,0.0,81,0.00,,,0.00,WUHU216HW,2013-03-03 11:10:00,
2013-03-03 05:15:00,3.5,-1.3,29.88,ESE,113,0.0,0.0,80,0.00,,,0.00,WUHU216HW,2013-03-03 11:15:00,
2013-03-03 05:20:00,3.2,-1.2,29.88,ESE,113,0.0,0.0,81,0.00,,,0.00,WUHU216HW,2013-03-03 11:20:00,
2013-03-03 05:25:00,3.2,-1.5,29.88,ENE,68,0.0,0.0,80,0.00,,,0.00,WUHU216HW,2013-03-03 11:25:00,
2013-03-03 05:30:00,3.7,-0.8,29.88,NE,45,0.0,0.0,81,0.00,,,0.00,WUHU216HW,2013-03-03 11:30:00,
2013-03-03 05:35:00,3.7,-0.8,29.87,ENE,68,0.0,0.0,81,0.00,,,0.00,WUHU216HW,2013-03-03 11:35:00,
2013-03-03 05:40:00,3.6,-0.9,29.87,ENE,68,0.0,0.0,81,0.00,,,0.00,WUHU216HW,2013-03-03 11:40:00,
2013-03-03 05:45:00,4.0,-0.5,29.87,NNE,23,0.2,0.2,81,0.00,,,0.00,WUHU216HW,2013-03-03 11:45:00,
2013-03-03 05:50:00,4.2,-0.3,29.87,NNE,23,0.0,0.2,81,0.00,,,0.00,WUHU216HW,2013-03-03 11:50:00,
2013-03-03 05:55:00,3.6,-0.9,29.87,NNE,23,0.0,0.0,81,0.00,,,0.00,WUHU216HW,2013-03-03 11:55:00,
2013-03-03 06:00:00,3.2,-1.3,29.87,NNE,23,0.0,0.0,81,0.00,,,0.00,WUHU216HW,2013-03-03 12:00:00,
2013-03-03 06:05:00,3.0,-1.5,29.87,NNE,23,0.2,0.2,81,0.00,,,0.00,WUHU216HW,2013-03-03 12:05:00,
2013-03-03 06:10:00,3.5,-1.0,29.87,NNE,23,0.0,0.2,81,0.00,,,0.00,WUHU216HW,2013-03-03 12:10:00,
2013-03-03 06:15:00,3.5,-1.0,29.87,NNE,23,0.0,0.0,81,0.00,,,0.00,WUHU216HW,2013-03-03 12:15:00,
2013-03-03 06:20:00,3.4,-1.1,29.87,NE,45,0.2,0.2,81,0.00,,,0.00,WUHU216HW,2013-03-03 12:20:00,
2013-03-03 06:25:00,4.2,-0.3,29.87,ENE,68,0.0,0.2,81,0.00,,,0.00,WUHU216HW,2013-03-03 12:25:00,
2013-03-03 06:30:00,4.2,-0.3,29.87,ENE,68,0.0,0.2,81,0.00,,,0.00,WUHU216HW,2013-03-03 12:30:00,
2013-03-03 06:35:00,3.9,-0.6,29.87,NNE,23,0.0,0.0,81,0.00,,,0.00,WUHU216HW,2013-03-03 12:35:00,
2013-03-03 06:40:00,3.7,-0.8,29.87,NE,45,0.0,0.0,81,0.00,,,0.00,WUHU216HW,2013-03-03 12:40:00,
2013-03-03 06:45:00,3.7,-0.8,29.87,NE,45,0.0,0.0,81,0.00,,,0.00,WUHU216HW,2013-03-03 12:45:00,
2013-03-03 06:50:00,3.7,-0.8,29.87,NE,45,0.0,0.0,81,0.00,,,0.00,WUHU216HW,2013-03-03 12:50:00,
2013-03-03 06:55:00,4.3,0.1,29.87,NE,45,0.2,0.2,82,0.00,,,0.00,WUHU216HW,2013-03-03 12:55:00,
2013-03-03 07:00:00,5.2,0.9,29.86,NNW,338,0.0,0.2,82,0.00,,,0.00,WUHU216HW,2013-03-03 13:00:00,
2013-03-03 07:05:00,5.4,1.1,29.87,NNW,338,0.0,0.2,82,0.00,,,0.00,WUHU216HW,2013-03-03 13:05:00,
2013-03-03 07:10:00,5.8,1.8,29.87,NNW,338,0.0,0.0,83,0.00,,,0.00,WUHU216HW,2013-03-03 13:10:00,
2013-03-03 07:15:00,6.3,2.2,29.87,NE,45,0.0,0.0,83,0.00,,,0.00,WUHU216HW,2013-03-03 13:15:00,
2013-03-03 07:20:00,6.8,2.7,29.87,East,90,0.0,0.0,83,0.00,,,0.00,WUHU216HW,2013-03-03 13:20:00,
2013-03-03 07:25:00,7.4,3.3,29.87,East,90,0.0,0.0,83,0.00,,,0.00,WUHU216HW,2013-03-03 13:25:00,
2013-03-03 07:30:00,7.9,3.8,29.87,NNE,23,0.0,0.0,83,0.00,,,0.00,WUHU216HW,2013-03-03 13:30:00,
2013-03-03 07:35:00,8.6,4.5,29.87,NNE,23,0.0,0.0,83,0.00,,,0.00,WUHU216HW,2013-03-03 13:35:00,
2013-03-03 07:40:00,9.0,4.9,29.88,NNE,23,0.0,0.0,83,0.00,,,0.00,WUHU216HW,2013-03-03 13:40:00,
2013-03-03 07:45:00,9.7,5.6,29.88,NNE,23,0.0,0.0,83,0.00,,,0.00,WUHU216HW,2013-03-03 13:45:00,
2013-03-03 07:50:00,10.3,6.2,29.88,NE,45,0.0,0.2,83,0.00,,,0.00,WUHU216HW,2013-03-03 13:50:00,
2013-03-03 07:55:00,10.8,6.9,29.87,NE,45,0.0,0.2,84,0.00,,,0.00,WUHU216HW,2013-03-03 13:55:00,
2013-03-03 08:00:00,11.5,7.6,29.87,NE,45,0.0,0.0,84,0.00,,,0.00,WUHU216HW,2013-03-03 14:00:00,
2013-03-03 08:05:00,12.1,8.2,29.87,NE,45,0.0,0.0,84,0.00,,,0.00,WUHU216HW,2013-03-03 14:05:00,
2013-03-03 08:10:00,12.8,8.9,29.87,NE,45,0.0,0.0,84,0.00,,,0.00,WUHU216HW,2013-03-03 14:10:00,
2013-03-03 08:15:00,13.3,9.6,29.87,NE,45,0.0,0.0,85,0.00,,,0.00,WUHU216HW,2013-03-03 14:15:00,
2013-03-03 08:20:00,14.8,11.1,29.87,NE,45,0.0,0.0,85,0.00,,,0.00,WUHU216HW,2013-03-03 14:20:00,
2013-03-03 08:25:00,17.3,14.1,29.87,NE,45,0.0,0.0,87,0.00,,,0.00,WUHU216HW,2013-03-03 14:25:00,
2013-03-03 08:30:00,19.6,16.6,29.87,NE,45,0.0,0.0,88,0.00,,,0.00,WUHU216HW,2013-03-03 14:30:00,
2013-03-03 08:35:00,22.5,19.5,29.87,ENE,68,0.0,0.0,88,0.00,,,0.00,WUHU216HW,2013-03-03 14:35:00,
2013-03-03 08:40:00,24.8,22.0,29.87,SE,135,0.0,0.0,89,0.00,,,0.00,WUHU216HW,2013-03-03 14:40:00,
2013-03-03 08:45:00,26.6,23.0,29.87,WNW,293,0.0,0.0,86,0.00,,,0.00,WUHU216HW,2013-03-03 14:45:00,
2013-03-03 08:50:00,27.2,23.0,29.87,NNE,23,0.0,0.4,84,0.00,,,0.00,WUHU216HW,2013-03-03 14:50:00,
2013-03-03 08:55:00,27.7,22.4,29.87,NNE,23,0.0,0.4,80,0.00,,,0.00,WUHU216HW,2013-03-03 14:55:00,
2013-03-03 09:00:00,27.9,22.6,29.87,ENE,60,0.3,0.4,80,0.00,,,0.00,WUHU216HW,2013-03-03 15:00:00,
2013-03-03 09:05:00,29.2,23.2,29.87,East,86,0.2,0.4,78,0.00,,,0.00,WUHU216HW,2013-03-03 15:05:00,
2013-03-03 09:10:00,30.8,24.5,29.86,ENE,68,0.4,0.4,77,0.00,,,0.00,WUHU216HW,2013-03-03 15:10:00,
2013-03-03 09:15:00,31.3,22.1,29.86,SSE,156,0.3,0.9,68,0.00,,,0.00,WUHU216HW,2013-03-03 15:15:00,
2013-03-03 09:20:00,31.3,22.1,29.86,SSW,203,0.2,0.9,68,0.00,,,0.00,WUHU216HW,2013-03-03 15:20:00,
2013-03-03 09:25:00,31.3,20.6,29.86,SSW,205,0.5,1.1,64,0.00,,,0.00,WUHU216HW,2013-03-03 15:25:00,
2013-03-03 09:30:00,32.4,22.8,29.87,ESE,113,0.4,1.3,67,0.00,,,0.00,WUHU216HW,2013-03-03 15:30:00,
2013-03-03 09:35:00,33.3,22.9,29.87,NNE,23,0.9,1.3,65,0.00,,,0.00,WUHU216HW,2013-03-03 15:35:00,
2013-03-03 09:40:00,33.1,22.0,29.87,ESE,113,0.9,1.6,63,0.00,,,0.00,WUHU216HW,2013-03-03 15:40:00,
2013-03-03 09:45:00,35.5,24.3,29.86,ESE,108,0.3,1.6,63,0.00,,,0.00,WUHU216HW,2013-03-03 15:45:00,
2013-03-03 09:50:00,35.6,21.1,29.86,South,174,1.1,2.0,55,0.00,,,0.00,WUHU216HW,2013-03-03 15:50:00,
2013-03-03 09:55:00,33.5,18.2,29.86,SE,143,1.4,2.5,53,0.00,,,0.00,WUHU216HW,2013-03-03 15:55:00,
2013-03-03 10:00:00,33.5,19.5,29.86,SSW,203,0.9,2.5,56,0.00,,,0.00,WUHU216HW,2013-03-03 16:00:00,
2013-03-03 10:05:00,33.5,17.8,29.86,East,90,1.8,1.8,52,0.00,,,0.00,WUHU216HW,2013-03-03 16:05:00,
2013-03-03 10:10:00,33.3,18.0,29.86,ESE,113,1.1,2.5,53,0.00,,,0.00,WUHU216HW,2013-03-03 16:10:00,
2013-03-03 10:15:00,33.5,17.3,29.85,SE,135,1.1,2.5,51,0.00,,,0.00,WUHU216HW,2013-03-03 16:15:00,
2013-03-03 10:20:00,33.5,17.8,29.85,SE,135,1.8,1.8,52,0.00,,,0.00,WUHU216HW,2013-03-03 16:20:00,
2013-03-03 10:25:00,33.1,16.9,29.85,SE,128,1.3,1.8,51,0.00,,,0.00,WUHU216HW,2013-03-03 16:25:00,
2013-03-03 10:30:00,33.5,16.8,29.85,SSE,168,1.5,1.8,50,0.00,,,0.00,WUHU216HW,2013-03-03 16:30:00,
2013-03-03 10:35:00,33.3,17.1,29.85,SE,135,1.6,1.8,51,0.00,,,0.00,WUHU216HW,2013-03-03 16:35:00,
2013-03-03 10:40:00,33.5,16.3,29.85,South,171,0.9,1.8,49,0.00,,,0.00,WUHU216HW,2013-03-03 16:40:00,
2013-03-03 10:45:00,33.8,16.1,29.85,SSE,158,0.9,1.8,48,0.00,,,0.00,WUHU216HW,2013-03-03 16:45:00,
2013-03-03 10:50:00,34.0,16.8,29.84,NE,41,1.2,1.8,49,0.00,,,0.00,WUHU216HW,2013-03-03 16:50:00,
2013-03-03 10:55:00,34.6,16.9,29.84,SSE,154,0.8,1.8,48,0.00,,,0.00,WUHU216HW,2013-03-03 16:55:00,
2013-03-03 11:00:00,35.1,17.3,29.84,SE,135,1.1,1.3,48,0.00,,,0.00,WUHU216HW,2013-03-03 17:00:00,
2013-03-03 11:05:00,35.6,16.8,29.84,South,180,1.6,1.8,46,0.00,,,0.00,WUHU216HW,2013-03-03 17:05:00,
2013-03-03 11:10:00,35.1,15.8,29.84,South,183,1.3,3.4,45,0.00,,,0.00,WUHU216HW,2013-03-03 17:10:00,
2013-03-03 11:15:00,35.5,16.7,29.85,SE,135,1.8,3.4,46,0.00,,,0.00,WUHU216HW,2013-03-03 17:15:00,
2013-03-03 11:20:00,34.9,15.1,29.85,SE,141,1.9,2.7,44,0.00,,,0.00,WUHU216HW,2013-03-03 17:20:00,
2013-03-03 11:25:00,35.6,16.8,29.85,SSW,203,0.7,2.7,46,0.00,,,0.00,WUHU216HW,2013-03-03 17:25:00,
2013-03-03 11:30:00,36.7,17.8,29.85,ESE,112,1.2,2.5,46,0.00,,,0.00,WUHU216HW,2013-03-03 17:30:00,
2013-03-03 11:35:00,36.9,18.0,29.85,East,90,1.1,2.5,46,0.00,,,0.00,WUHU216HW,2013-03-03 17:35:00,
2013-03-03 11:40:00,37.1,18.2,29.85,SE,135,1.8,2.2,46,0.00,,,0.00,WUHU216HW,2013-03-03 17:40:00,
2013-03-03 11:45:00,38.3,18.7,29.85,SE,135,2.2,2.9,45,0.00,,,0.00,WUHU216HW,2013-03-03 17:45:00,
2013-03-03 11:50:00,37.4,17.9,29.84,SSE,151,1.0,2.9,45,0.00,,,0.00,WUHU216HW,2013-03-03 17:50:00,
2013-03-03 11:55:00,36.7,17.8,29.84,SE,127,1.0,2.5,46,0.00,,,0.00,WUHU216HW,2013-03-03 17:55:00,
2013-03-03 12:00:00,37.8,18.8,29.84,SSE,158,1.8,2.5,46,0.00,,,0.00,WUHU216HW,2013-03-03 18:00:00,
2013-03-03 12:05:00,38.2,19.2,29.84,South,180,1.3,2.5,46,0.00,,,0.00,WUHU216HW,2013-03-03 18:05:00,
2013-03-03 12:10:00,38.2,19.2,29.83,North,11,0.7,3.1,46,0.00,,,0.00,WUHU216HW,2013-03-03 18:10:00,
2013-03-03 12:15:00,39.6,20.4,29.83,ESE,116,0.9,3.1,46,0.00,,,0.00,WUHU216HW,2013-03-03 18:15:00,
2013-03-03 12:20:00,39.8,19.0,29.83,SW,217,0.8,1.8,43,0.00,,,0.00,WUHU216HW,2013-03-03 18:20:00,
2013-03-03 12:25:00,39.1,18.9,29.83,WSW,248,2.2,5.1,44,0.00,,,0.00,WUHU216HW,2013-03-03 18:25:00,
2013-03-03 12:30:00,38.5,18.4,29.83,South,180,1.6,5.1,44,0.00,,,0.00,WUHU216HW,2013-03-03 18:30:00,
2013-03-03 12:35:00,39.1,18.9,29.83,SSE,158,1.8,2.5,44,0.00,,,0.00,WUHU216HW,2013-03-03 18:35:00,
2013-03-03 12:40:00,39.4,19.2,29.82,South,188,0.9,2.5,44,0.00,,,0.00,WUHU216HW,2013-03-03 18:40:00,
2013-03-03 12:45:00,40.6,20.3,29.82,ENE,68,1.1,2.2,44,0.00,,,0.00,WUHU216HW,2013-03-03 18:45:00,
2013-03-03 12:50:00,40.3,19.5,29.82,SSE,152,1.2,2.5,43,0.00,,,0.00,WUHU216HW,2013-03-03 18:50:00,
2013-03-03 12:55:00,41.2,19.1,29.82,SE,130,1.7,2.5,41,0.00,,,0.00,WUHU216HW,2013-03-03 18:55:00,
2013-03-03 13:00:00,41.6,19.5,29.82,SSE,154,1.3,2.5,41,0.00,,,0.00,WUHU216HW,2013-03-03 19:00:00,
2013-03-03 13:05:00,42.1,19.9,29.81,SE,135,1.6,2.5,41,0.00,,,0.00,WUHU216HW,2013-03-03 19:05:00,
2013-03-03 13:10:00,42.1,18.8,29.81,SSE,158,2.2,2.7,39,0.00,,,0.00,WUHU216HW,2013-03-03 19:10:00,
2013-03-03 13:15:00,40.1,17.0,29.81,SSE,165,2.6,4.0,39,0.00,,,0.00,WUHU216HW,2013-03-03 19:15:00,
2013-03-03 13:20:00,39.7,17.7,29.81,SSE,150,1.8,4.0,41,0.00,,,0.00,WUHU216HW,2013-03-03 19:20:00,
2013-03-03 13:25:00,39.4,17.5,29.81,SE,145,2.0,3.1,41,0.00,,,0.00,WUHU216HW,2013-03-03 19:25:00,
2013-03-03 13:30:00,39.7,17.8,29.81,SE,127,1.0,3.1,41,0.00,,,0.00,WUHU216HW,2013-03-03 19:30:00,
2013-03-03 13:35:00,40.3,17.8,29.81,ESE,113,2.9,3.1,40,0.00,,,0.00,WUHU216HW,2013-03-03 19:35:00,
2013-03-03 13:40:00,39.2,16.7,29.81,SSE,158,1.8,3.8,40,0.00,,,0.00,WUHU216HW,2013-03-03 19:40:00,
2013-03-03 13:45:00,38.8,17.0,29.80,NE,45,1.8,3.8,41,0.00,,,0.00,WUHU216HW,2013-03-03 19:45:00,
2013-03-03 13:50:00,39.7,17.2,29.80,SE,135,2.7,3.4,40,0.00,,,0.00,WUHU216HW,2013-03-03 19:50:00,
2013-03-03 13:55:00,39.8,17.3,29.80,SSE,161,2.1,2.9,40,0.00,,,0.00,WUHU216HW,2013-03-03 19:55:00,
2013-03-03 14:00:00,40.4,18.4,29.79,ENE,70,0.9,2.9,41,0.00,,,0.00,WUHU216HW,2013-03-03 20:00:00,
2013-03-03 14:05:00,41.0,17.8,29.79,SE,135,2.7,3.4,39,0.00,,,0.00,WUHU216HW,2013-03-03 20:05:00,
2013-03-03 14:10:00,40.3,15.3,29.79,SE,135,2.2,3.4,36,0.00,,,0.00,WUHU216HW,2013-03-03 20:10:00,
2013-03-03 14:15:00,39.6,15.9,29.79,South,180,2.5,3.8,38,0.00,,,0.00,WUHU216HW,2013-03-03 20:15:00,
2013-03-03 14:20:00,39.3,16.8,29.79,SSW,203,1.1,3.8,40,0.00,,,0.00,WUHU216HW,2013-03-03 20:20:00,
2013-03-03 14:25:00,39.5,15.8,29.79,South,178,1.9,3.4,38,0.00,,,0.00,WUHU216HW,2013-03-03 20:25:00,
2013-03-03 14:30:00,39.3,16.2,29.79,SSW,203,2.5,3.4,39,0.00,,,0.00,WUHU216HW,2013-03-03 20:30:00,
2013-03-03 14:35:00,39.4,17.0,29.79,ENE,68,1.6,3.4,40,0.00,,,0.00,WUHU216HW,2013-03-03 20:35:00,
2013-03-03 14:40:00,40.3,16.5,29.79,ENE,71,1.5,2.5,38,0.00,,,0.00,WUHU216HW,2013-03-03 20:40:00,
2013-03-03 14:45:00,40.0,15.0,29.78,SE,134,1.4,2.2,36,0.00,,,0.00,WUHU216HW,2013-03-03 20:45:00,
2013-03-03 14:50:00,40.2,14.6,29.78,SE,135,1.8,2.0,35,0.00,,,0.00,WUHU216HW,2013-03-03 20:50:00,
2013-03-03 14:55:00,40.0,15.6,29.78,WNW,293,1.3,2.9,37,0.00,,,0.00,WUHU216HW,2013-03-03 20:55:00,
2013-03-03 15:00:00,40.6,15.5,29.78,SSE,166,1.4,2.9,36,0.00,,,0.00,WUHU216HW,2013-03-03 21:00:00,
2013-03-03 15:05:00,41.0,15.9,29.78,ESE,113,1.1,2.7,36,0.00,,,0.00,WUHU216HW,2013-03-03 21:05:00,
2013-03-03 15:10:00,41.0,16.6,29.78,NE,45,1.3,2.5,37,0.00,,,0.00,WUHU216HW,2013-03-03 21:10:00,
2013-03-03 15:15:00,39.9,15.6,29.78,SE,135,1.1,2.5,37,0.00,,,0.00,WUHU216HW,2013-03-03 21:15:00,
2013-03-03 15:20:00,39.8,13.5,29.78,SSE,158,2.2,3.1,34,0.00,,,0.00,WUHU216HW,2013-03-03 21:20:00,
2013-03-03 15:25:00,38.9,12.1,29.78,SSW,203,2.5,3.1,33,0.00,,,0.00,WUHU216HW,2013-03-03 21:25:00,
2013-03-03 15:30:00,38.3,13.5,29.77,SSE,148,1.0,3.1,36,0.00,,,0.00,WUHU216HW,2013-03-03 21:30:00,
2013-03-03 15:35:00,38.3,14.1,29.77,East,79,0.7,3.6,37,0.00,,,0.00,WUHU216HW,2013-03-03 21:35:00,
2013-03-03 15:40:00,39.6,14.7,29.77,SE,137,1.3,3.6,36,0.00,,,0.00,WUHU216HW,2013-03-03 21:40:00,
2013-03-03 15:45:00,39.8,14.8,29.77,NE,45,1.6,2.0,36,0.00,,,0.00,WUHU216HW,2013-03-03 21:45:00,
2013-03-03 15:50:00,39.2,14.3,29.77,NE,45,1.1,2.2,36,0.00,,,0.00,WUHU216HW,2013-03-03 21:50:00,
2013-03-03 15:55:00,39.0,12.9,29.77,SSW,203,1.8,2.2,34,0.00,,,0.00,WUHU216HW,2013-03-03 21:55:00,
2013-03-03 16:00:00,38.4,13.6,29.77,ESE,111,1.5,3.4,36,0.00,,,0.00,WUHU216HW,2013-03-03 22:00:00,
2013-03-03 16:05:00,37.9,13.8,29.77,SE,135,0.9,3.4,37,0.00,,,0.00,WUHU216HW,2013-03-03 22:05:00,
2013-03-03 16:10:00,37.5,14.0,29.77,ESE,109,1.0,2.5,38,0.00,,,0.00,WUHU216HW,2013-03-03 22:10:00,
2013-03-03 16:15:00,37.0,13.6,29.77,SE,125,1.1,2.5,38,0.00,,,0.00,WUHU216HW,2013-03-03 22:15:00,
2013-03-03 16:20:00,36.0,13.3,29.77,ESE,113,1.3,2.5,39,0.00,,,0.00,WUHU216HW,2013-03-03 22:20:00,
2013-03-03 16:25:00,36.0,13.9,29.77,ESE,106,1.4,2.5,40,0.00,,,0.00,WUHU216HW,2013-03-03 22:25:00,
2013-03-03 16:31:00,36.3,14.1,29.77,SE,132,0.5,2.9,40,0.00,,,0.00,WUHU216HW,2013-03-03 22:31:00,
2013-03-03 16:36:00,36.1,14.0,29.77,NE,45,1.6,2.9,40,0.00,,,0.00,WUHU216HW,2013-03-03 22:36:00,
2013-03-03 16:41:00,34.6,13.1,29.77,East,92,1.1,3.1,41,0.00,,,0.00,WUHU216HW,2013-03-03 22:41:00,
2013-03-03 16:46:00,33.9,13.1,29.77,East,95,0.4,3.1,42,0.00,,,0.00,WUHU216HW,2013-03-03 22:46:00,
2013-03-03 16:51:00,33.4,12.6,29.77,SE,135,1.3,1.6,42,0.00,,,0.00,WUHU216HW,2013-03-03 22:51:00,
2013-03-03 16:56:00,32.2,11.6,29.77,SSE,158,1.6,3.1,42,0.00,,,0.00,WUHU216HW,2013-03-03 22:56:00,
2013-03-03 17:01:00,31.4,11.3,29.77,ESE,122,1.1,3.1,43,0.00,,,0.00,WUHU216HW,2013-03-03 23:01:00,
2013-03-03 17:06:00,30.8,11.4,29.77,ENE,75,0.8,1.8,44,0.00,,,0.00,WUHU216HW,2013-03-03 23:06:00,
2013-03-03 17:11:00,30.7,11.8,29.77,ENE,68,0.7,1.1,45,0.00,,,0.00,WUHU216HW,2013-03-03 23:11:00,
2013-03-03 17:16:00,30.5,12.1,29.77,SE,135,0.4,1.6,46,0.00,,,0.00,WUHU216HW,2013-03-03 23:16:00,
2013-03-03 17:21:00,30.1,12.3,29.77,ESE,104,0.3,2.2,47,0.00,,,0.00,WUHU216HW,2013-03-03 23:21:00,
2013-03-03 17:26:00,29.9,12.5,29.77,SE,135,0.2,2.2,48,0.00,,,0.00,WUHU216HW,2013-03-03 23:26:00,
2013-03-03 17:31:00,29.6,12.7,29.77,SSE,158,2.0,2.0,49,0.00,,,0.00,WUHU216HW,2013-03-03 23:31:00,
2013-03-03 17:36:00,29.3,13.4,29.77,East,80,1.1,2.0,51,0.00,,,0.00,WUHU216HW,2013-03-03 23:36:00,
2013-03-03 17:41:00,29.0,13.1,29.76,SE,126,0.8,2.0,51,0.00,,,0.00,WUHU216HW,2013-03-03 23:41:00,
2013-03-03 17:46:00,28.7,13.3,29.76,East,82,0.6,1.8,52,0.00,,,0.00,WUHU216HW,2013-03-03 23:46:00,
2013-03-03 17:51:00,28.5,13.5,29.76,SSW,203,1.3,1.3,53,0.00,,,0.00,WUHU216HW,2013-03-03 23:51:00,
2013-03-03 17:56:00,28.4,13.9,29.76,ESE,113,1.1,1.3,54,0.00,,,0.00,WUHU216HW,2013-03-03 23:56:00,
2013-03-03 18:01:00,28.1,14.0,29.76,SE,128,0.8,1.3,55,0.00,,,0.00,WUHU216HW,2013-03-04 00:01:00,
2013-03-03 18:06:00,27.9,14.3,29.76,ESE,116,0.5,1.3,56,0.00,,,0.00,WUHU216HW,2013-03-04 00:06:00,
2013-03-03 18:11:00,27.9,14.3,29.76,East,90,0.4,1.1,56,0.00,,,0.00,WUHU216HW,2013-03-04 00:11:00,
2013-03-03 18:16:00,27.8,14.2,29.76,ENE,57,0.4,1.1,56,0.00,,,0.00,WUHU216HW,2013-03-04 00:16:00,
2013-03-03 18:21:00,27.5,14.3,29.76,NE,45,0.4,0.9,57,0.00,,,0.00,WUHU216HW,2013-03-04 00:21:00,
2013-03-03 18:26:00,27.6,14.8,29.77,SE,135,0.4,0.7,58,0.00,,,0.00,WUHU216HW,2013-03-04 00:26:00,
2013-03-03 18:31:00,27.5,14.7,29.77,SE,135,0.0,0.9,58,0.00,,,0.00,WUHU216HW,2013-03-04 00:31:00,
2013-03-03 18:36:00,27.2,14.4,29.77,ESE,113,0.0,0.9,58,0.00,,,0.00,WUHU216HW,2013-03-04 00:36:00,
2013-03-03 18:41:00,26.8,14.5,29.77,East,90,0.4,1.1,59,0.00,,,0.00,WUHU216HW,2013-03-04 00:41:00,
2013-03-03 18:46:00,26.6,15.0,29.77,East,92,0.3,1.1,61,0.00,,,0.00,WUHU216HW,2013-03-04 00:46:00,
2013-03-03 18:51:00,26.5,15.3,29.77,ENE,68,0.0,0.7,62,0.00,,,0.00,WUHU216HW,2013-03-04 00:51:00,
2013-03-03 18:56:00,26.5,15.7,29.77,SE,142,0.5,1.1,63,0.00,,,0.00,WUHU216HW,2013-03-04 00:56:00,
2013-03-03 19:01:00,26.5,15.7,29.77,SE,135,0.4,1.1,63,0.00,,,0.00,WUHU216HW,2013-03-04 01:01:00,
2013-03-03 19:06:00,26.5,15.7,29.77,NNE,30,0.6,1.1,63,0.00,,,0.00,WUHU216HW,2013-03-04 01:06:00,
2013-03-03 19:11:00,26.5,15.7,29.77,NNE,23,0.0,0.9,63,0.00,,,0.00,WUHU216HW,2013-03-04 01:11:00,
2013-03-03 19:16:00,26.3,15.5,29.77,ESE,113,0.2,0.4,63,0.00,,,0.00,WUHU216HW,2013-03-04 01:16:00,
2013-03-03 19:21:00,26.3,15.9,29.77,NE,45,0.7,1.3,64,0.00,,,0.00,WUHU216HW,2013-03-04 01:21:00,
2013-03-03 19:26:00,26.6,16.1,29.77,ESE,119,0.4,2.5,64,0.00,,,0.00,WUHU216HW,2013-03-04 01:26:00,
2013-03-03 19:31:00,26.6,16.1,29.77,ESE,107,0.6,2.5,64,0.00,,,0.00,WUHU216HW,2013-03-04 01:31:00,
2013-03-03 19:36:00,26.6,16.5,29.77,ESE,103,0.3,0.9,65,0.00,,,0.00,WUHU216HW,2013-03-04 01:36:00,
2013-03-03 19:41:00,26.5,16.1,29.77,SE,135,0.4,0.7,64,0.00,,,0.00,WUHU216HW,2013-03-04 01:41:00,
2013-03-03 19:46:00,26.5,16.4,29.77,NE,38,0.7,1.8,65,0.00,,,0.00,WUHU216HW,2013-03-04 01:46:00,
2013-03-03 19:51:00,26.5,16.4,29.77,SE,129,0.2,1.8,65,0.00,,,0.00,WUHU216HW,2013-03-04 01:51:00,
2013-03-03 19:56:00,26.3,16.2,29.77,East,91,0.6,1.1,65,0.00,,,0.00,WUHU216HW,2013-03-04 01:56:00,
2013-03-03 20:01:00,26.3,16.2,29.77,ESE,113,0.9,1.1,65,0.00,,,0.00,WUHU216HW,2013-03-04 02:01:00,
2013-03-03 20:06:00,26.3,16.2,29.77,ENE,68,0.4,0.9,65,0.00,,,0.00,WUHU216HW,2013-03-04 02:06:00,
2013-03-03 20:11:00,26.3,16.2,29.76,ESE,110,0.4,0.9,65,0.00,,,0.00,WUHU216HW,2013-03-04 02:11:00,
2013-03-03 20:16:00,26.3,15.9,29.76,SSE,158,1.8,1.8,64,0.00,,,0.00,WUHU216HW,2013-03-04 02:16:00,
2013-03-03 20:21:00,26.3,15.5,29.76,ESE,113,1.1,1.8,63,0.00,,,0.00,WUHU216HW,2013-03-04 02:21:00,
2013-03-03 20:26:00,26.3,15.5,29.76,ESE,113,0.7,1.8,63,0.00,,,0.00,WUHU216HW,2013-03-04 02:26:00,
2013-03-03 20:31:00,26.3,15.5,29.77,NE,45,1.1,1.1,63,0.00,,,0.00,WUHU216HW,2013-03-04 02:31:00,
2013-03-03 20:36:00,26.3,15.1,29.77,East,80,0.6,1.1,62,0.00,,,0.00,WUHU216HW,2013-03-04 02:36:00,
2013-03-03 20:41:00,26.3,14.8,29.77,East,90,0.4,1.1,61,0.00,,,0.00,WUHU216HW,2013-03-04 02:41:00,
2013-03-03 20:46:00,26.5,14.6,29.76,East,90,1.1,1.8,60,0.00,,,0.00,WUHU216HW,2013-03-04 02:46:00,
2013-03-03 20:51:00,26.5,14.6,29.76,ENE,73,0.5,1.8,60,0.00,,,0.00,WUHU216HW,2013-03-04 02:51:00,
2013-03-03 20:56:00,26.5,14.2,29.76,North,0,1.1,1.3,59,0.00,,,0.00,WUHU216HW,2013-03-04 02:56:00,
2013-03-03 21:01:00,26.6,14.7,29.76,NNE,23,1.3,1.8,60,0.00,,,0.00,WUHU216HW,2013-03-04 03:01:00,
2013-03-03 21:06:00,26.6,14.7,29.77,East,85,0.7,1.8,60,0.00,,,0.00,WUHU216HW,2013-03-04 03:06:00,
2013-03-03 21:11:00,26.5,14.6,29.77,SE,135,0.7,1.8,60,0.00,,,0.00,WUHU216HW,2013-03-04 03:11:00,
2013-03-03 21:16:00,26.5,14.2,29.77,NE,45,0.4,1.3,59,0.00,,,0.00,WUHU216HW,2013-03-04 03:16:00,
2013-03-03 21:21:00,26.5,14.6,29.77,NNE,31,0.3,1.3,60,0.00,,,0.00,WUHU216HW,2013-03-04 03:21:00,
2013-03-03 21:26:00,26.5,14.6,29.77,ESE,113,0.5,1.6,60,0.00,,,0.00,WUHU216HW,2013-03-04 03:26:00,
2013-03-03 21:31:00,26.5,14.6,29.76,East,91,0.8,1.6,60,0.00,,,0.00,WUHU216HW,2013-03-04 03:31:00,
2013-03-03 21:36:00,26.5,14.6,29.76,NE,45,0.9,1.6,60,0.00,,,0.00,WUHU216HW,2013-03-04 03:36:00,
2013-03-03 21:41:00,26.5,14.6,29.76,ESE,110,0.5,1.3,60,0.00,,,0.00,WUHU216HW,2013-03-04 03:41:00,
2013-03-03 21:46:00,26.5,14.6,29.76,North,0,0.4,1.6,60,0.00,,,0.00,WUHU216HW,2013-03-04 03:46:00,
2013-03-03 21:51:00,26.5,14.6,29.76,NNE,23,0.4,1.6,60,0.00,,,0.00,WUHU216HW,2013-03-04 03:51:00,
2013-03-03 21:56:00,26.5,14.9,29.76,South,172,0.6,0.9,61,0.00,,,0.00,WUHU216HW,2013-03-04 03:56:00,
2013-03-03 22:01:00,26.3,14.8,29.76,SE,135,0.7,1.1,61,0.00,,,0.00,WUHU216HW,2013-03-04 04:01:00,
2013-03-03 22:06:00,26.3,14.8,29.76,ESE,104,1.3,1.8,61,0.00,,,0.00,WUHU216HW,2013-03-04 04:06:00,
2013-03-03 22:11:00,26.4,15.2,29.76,East,97,0.7,1.8,62,0.00,,,0.00,WUHU216HW,2013-03-04 04:11:00,
2013-03-03 22:16:00,26.4,15.2,29.76,SE,135,0.7,1.8,62,0.00,,,0.00,WUHU216HW,2013-03-04 04:16:00,
2013-03-03 22:21:00,26.4,14.9,29.76,ESE,119,1.7,3.8,61,0.00,,,0.00,WUHU216HW,2013-03-04 04:21:00,
2013-03-03 22:26:00,26.3,14.7,29.76,East,94,0.5,3.8,61,0.00,,,0.00,WUHU216HW,2013-03-04 04:26:00,
2013-03-03 22:31:00,26.3,15.1,29.76,ESE,107,0.9,2.2,62,0.00,,,0.00,WUHU216HW,2013-03-04 04:31:00,
2013-03-03 22:36:00,26.3,14.8,29.76,ESE,114,0.6,2.5,61,0.00,,,0.00,WUHU216HW,2013-03-04 04:36:00,
2013-03-03 22:41:00,26.3,14.4,29.76,SE,146,1.0,2.5,60,0.00,,,0.00,WUHU216HW,2013-03-04 04:41:00,
2013-03-03 22:46:00,26.4,14.4,29.76,NNE,23,1.8,1.8,60,0.00,,,0.00,WUHU216HW,2013-03-04 04:46:00,
2013-03-03 22:51:00,26.6,14.6,29.76,East,90,0.7,2.5,60,0.00,,,0.00,WUHU216HW,2013-03-04 04:51:00,
2013-03-03 22:56:00,26.6,14.7,29.76,SSW,203,0.9,2.5,60,0.00,,,0.00,WUHU216HW,2013-03-04 04:56:00,
2013-03-03 23:00:00,26.6,14.7,29.76,ESE,107,0.8,2.5,60,0.00,,,0.00,WUHU216HW,2013-03-04 05:00:00,
2013-03-03 23:05:00,26.7,15.1,29.76,SSE,158,1.1,2.5,61,0.00,,,0.00,WUHU216HW,2013-03-04 05:05:00,
2013-03-03 23:10:00,26.9,15.7,29.76,ESE,116,0.5,1.6,62,0.00,,,0.00,WUHU216HW,2013-03-04 05:10:00,
2013-03-03 23:15:00,27.0,15.8,29.76,ESE,103,0.5,1.6,62,0.00,,,0.00,WUHU216HW,2013-03-04 05:15:00,
2013-03-03 23:20:00,27.0,16.2,29.76,East,96,0.7,1.8,63,0.00,,,0.00,WUHU216HW,2013-03-04 05:20:00,
2013-03-03 23:25:00,27.1,16.2,29.76,ESE,118,1.3,2.5,63,0.00,,,0.00,WUHU216HW,2013-03-04 05:25:00,
2013-03-03 23:30:00,27.3,16.5,29.76,East,90,1.1,2.5,63,0.00,,,0.00,WUHU216HW,2013-03-04 05:30:00,
2013-03-03 23:35:00,27.3,16.5,29.76,SE,143,1.0,2.5,63,0.00,,,0.00,WUHU216HW,2013-03-04 05:35:00,
2013-03-03 23:40:00,27.4,16.5,29.76,ESE,107,1.6,3.6,63,0.00,,,0.00,WUHU216HW,2013-03-04 05:40:00,
2013-03-03 23:45:00,27.2,16.3,29.76,ESE,111,1.5,3.6,63,0.00,,,0.00,WUHU216HW,2013-03-04 05:45:00,
2013-03-03 23:50:00,27.2,16.4,29.76,ESE,108,1.0,2.9,63,0.00,,,0.00,WUHU216HW,2013-03-04 05:50:00,
2013-03-03 23:55:00,27.1,16.3,29.76,ESE,113,0.9,2.5,63,0.00,,,0.00,WUHU216HW,2013-03-04 05:55:00,